createdAt,value
2023-01-11T00:01:50.385Z,4.00
2023-01-11T00:06:54.657Z,3.60
2023-01-11T00:12:00.115Z,5.90
2023-01-11T00:17:04.088Z,4.90
2023-01-11T00:22:09.098Z,4.15
2023-01-11T00:27:14.534Z,7.28
2023-01-11T00:32:18.702Z,8.10
2023-01-11T00:37:23.223Z,7.50
2023-01-11T00:42:45.783Z,8.55
2023-01-11T00:47:58.689Z,6.57
2023-01-11T00:53:03.409Z,7.57
2023-01-11T00:58:09.857Z,8.02
2023-01-11T01:03:14.689Z,6.95
2023-01-11T01:08:18.625Z,6.05
2023-01-11T01:13:41.063Z,5.18
2023-01-11T01:18:45.118Z,5.30
2023-01-11T01:23:49.112Z,7.45
2023-01-11T01:28:54.799Z,8.90
2023-01-11T01:33:59.255Z,6.40
2023-01-11T01:39:04.196Z,5.78
2023-01-11T01:44:41.052Z,4.85
2023-01-11T01:49:47.046Z,7.30
2023-01-11T01:54:51.226Z,5.40
2023-01-11T01:59:59.715Z,5.03
2023-01-11T02:05:07.025Z,5.40
2023-01-11T02:10:14.246Z,7.28
2023-01-11T02:15:20.467Z,4.28
2023-01-11T02:20:54.336Z,4.88
2023-01-11T02:26:32.945Z,5.35
2023-01-11T02:31:46.290Z,5.57
2023-01-11T02:37:04.940Z,6.97
2023-01-11T02:42:31.548Z,7.70
2023-01-11T02:47:42.864Z,6.00
2023-01-11T02:52:56.989Z,5.20
2023-01-11T02:58:04.151Z,3.42
2023-01-11T03:03:13.794Z,2.80
2023-01-11T03:08:32.303Z,3.45
2023-01-11T03:13:50.035Z,3.65
2023-01-11T03:19:08.491Z,3.25
2023-01-11T03:24:20.341Z,3.00
2023-01-11T03:29:32.216Z,2.60
2023-01-11T03:34:44.408Z,3.80
2023-01-11T03:39:53.669Z,4.50
2023-01-11T03:44:59.764Z,3.63
2023-01-11T03:50:12.105Z,3.00
2023-01-11T03:55:18.718Z,3.85
2023-01-11T04:00:24.230Z,3.17
2023-01-11T04:05:30.291Z,3.67
2023-01-11T04:10:34.302Z,4.70
2023-01-11T04:15:38.713Z,3.17
2023-01-11T04:20:44.379Z,3.95
2023-01-11T04:25:48.607Z,5.80
2023-01-11T04:30:53.009Z,6.35
2023-01-11T04:35:58.360Z,4.60
2023-01-11T04:41:22.727Z,4.82
2023-01-11T04:46:27.554Z,4.85
2023-01-11T04:51:33.072Z,7.25
2023-01-11T04:56:37.432Z,7.28
2023-01-11T05:01:41.540Z,9.82
2023-01-11T05:06:48.242Z,19.15
2023-01-11T05:11:52.382Z,22.23
2023-01-11T05:16:56.815Z,22.10
2023-01-11T05:22:02.241Z,14.10
2023-01-11T05:27:07.428Z,7.70
2023-01-11T05:32:12.827Z,7.70
2023-01-11T05:37:18.245Z,6.85
2023-01-11T05:42:23.009Z,14.77
2023-01-11T05:47:27.569Z,13.00
2023-01-11T05:52:33.352Z,12.93
2023-01-11T05:57:37.798Z,44.67
2023-01-11T06:02:42.105Z,24.70
2023-01-11T06:07:47.897Z,14.00
2023-01-11T06:13:16.257Z,24.02
2023-01-11T06:18:20.344Z,25.05
2023-01-11T06:23:27.063Z,22.42
2023-01-11T06:28:31.161Z,38.10
2023-01-11T06:33:35.521Z,42.03
2023-01-11T06:38:41.985Z,28.77
2023-01-11T06:43:46.940Z,31.95
2023-01-11T06:48:51.313Z,26.38
2023-01-11T06:53:59.917Z,26.98
2023-01-11T06:59:03.896Z,22.40
2023-01-11T07:04:08.233Z,16.92
2023-01-11T07:09:13.940Z,11.07
2023-01-11T07:14:20.338Z,10.65
2023-01-11T07:19:24.567Z,10.07
2023-01-11T07:24:30.466Z,9.80
2023-01-11T07:29:34.823Z,9.80
2023-01-11T07:34:39.397Z,10.88
2023-01-11T07:39:45.090Z,9.77
2023-01-11T07:44:49.458Z,7.38
2023-01-11T07:49:53.826Z,7.30
2023-01-11T07:55:03.008Z,6.15
2023-01-11T08:05:15.886Z,6.00
2023-01-11T08:10:21.401Z,7.35
2023-01-11T08:15:26.062Z,6.43
2023-01-11T08:20:30.161Z,4.50
2023-01-11T08:25:36.548Z,7.50
2023-01-11T08:30:44.253Z,12.23
2023-01-11T08:35:49.350Z,11.95
2023-01-11T08:40:55.303Z,13.50
2023-01-11T08:46:00.273Z,14.40
2023-01-11T08:51:04.559Z,14.07
2023-01-11T08:56:10.927Z,11.55
2023-01-11T09:01:15.018Z,11.00
2023-01-11T09:06:20.209Z,9.45
2023-01-11T09:11:43.062Z,6.85
2023-01-11T09:16:50.358Z,7.80
2023-01-11T09:21:57.964Z,9.25
2023-01-11T09:27:05.078Z,9.68
2023-01-11T09:32:09.419Z,8.15
2023-01-11T09:37:14.468Z,8.18
2023-01-11T09:42:43.091Z,8.10
2023-01-11T09:47:51.950Z,9.68
2023-01-11T09:53:00.423Z,11.38
2023-01-11T09:58:36.522Z,10.47
2023-01-11T10:04:06.180Z,13.52
2023-01-11T10:18:25.789Z,14.40
2023-01-11T10:20:31.034Z,16.42
2023-01-11T10:25:44.640Z,16.83
2023-01-11T10:31:07.923Z,19.73
2023-01-11T10:36:34.729Z,16.75
2023-01-11T10:41:52.589Z,19.27
2023-01-11T10:47:00.855Z,18.65
2023-01-11T10:52:16.215Z,13.55
2023-01-11T10:57:59.323Z,10.88
2023-01-11T11:03:39.287Z,10.07
2023-01-11T11:08:51.145Z,10.48
2023-01-11T11:14:01.877Z,10.43
2023-01-11T11:19:14.115Z,10.68
2023-01-11T11:24:24.253Z,12.48
2023-01-11T11:29:30.831Z,14.90
2023-01-11T11:34:37.731Z,12.85
2023-01-11T11:39:42.346Z,13.15
2023-01-11T11:44:46.440Z,11.20
2023-01-11T11:49:52.191Z,9.52
2023-01-11T11:54:59.240Z,7.95
2023-01-11T12:00:07.442Z,8.88
2023-01-11T12:05:13.937Z,6.82
2023-01-11T12:10:21.401Z,4.47
2023-01-11T12:15:27.422Z,5.28
2023-01-11T12:20:39.056Z,5.50
2023-01-11T12:26:03.333Z,5.32
2023-01-11T12:31:14.928Z,3.67
2023-01-11T12:36:32.757Z,7.10
2023-01-11T12:42:00.446Z,7.07
2023-01-11T12:47:39.401Z,5.68
2023-01-11T12:53:00.403Z,6.40
2023-01-11T12:58:09.308Z,5.85
2023-01-11T13:03:35.591Z,3.75
2023-01-11T13:08:56.919Z,3.47
2023-01-11T13:14:22.946Z,4.15
2023-01-11T13:19:34.104Z,3.88
2023-01-11T13:24:41.928Z,5.90
2023-01-11T13:29:49.735Z,7.82
2023-01-11T13:35:00.220Z,5.63
2023-01-11T13:40:16.835Z,7.32
2023-01-11T13:45:26.093Z,7.28
2023-01-11T13:50:33.630Z,9.43
2023-01-11T13:55:46.461Z,7.13
2023-01-11T14:00:57.154Z,7.65
2023-01-11T14:06:20.814Z,5.85
2023-01-11T14:11:38.277Z,6.50
2023-01-11T14:17:00.877Z,6.55
2023-01-11T14:22:15.724Z,9.20
2023-01-11T14:27:45.755Z,9.88
2023-01-11T14:33:23.668Z,10.23
2023-01-11T14:38:47.919Z,8.35
2023-01-11T14:44:19.730Z,7.95
2023-01-11T14:49:41.762Z,11.43
2023-01-11T14:54:49.941Z,12.52
2023-01-11T14:59:55.545Z,18.98
2023-01-11T15:05:11.429Z,17.88
2023-01-11T15:10:42.019Z,12.30
2023-01-11T15:16:05.438Z,12.75
2023-01-11T15:21:19.228Z,15.75
2023-01-11T15:26:26.753Z,20.85
2023-01-11T15:32:04.153Z,16.33
2023-01-11T15:37:36.924Z,19.10
2023-01-11T15:43:10.275Z,13.98
2023-01-11T15:48:36.886Z,18.15
2023-01-11T15:54:12.773Z,14.18
2023-01-11T15:59:57.509Z,16.42
2023-01-11T16:05:17.671Z,12.25
2023-01-11T16:10:53.937Z,9.38
2023-01-11T16:16:07.926Z,12.65
2023-01-11T16:21:22.311Z,13.82
2023-01-11T16:26:27.202Z,13.13
2023-01-11T16:31:55.005Z,16.55
2023-01-11T16:37:02.953Z,14.43
2023-01-11T16:42:11.224Z,15.43
2023-01-11T16:47:19.404Z,13.15
2023-01-11T16:52:55.200Z,11.48
2023-01-11T16:58:01.552Z,19.15
2023-01-11T17:03:31.124Z,18.75
2023-01-11T17:08:40.757Z,25.63
2023-01-11T17:14:24.321Z,24.17
2023-01-11T17:19:32.543Z,17.50
2023-01-11T17:24:42.918Z,29.20
2023-01-11T17:29:48.403Z,16.42
2023-01-11T17:34:54.013Z,12.07
2023-01-11T17:40:00.456Z,11.23
2023-01-11T17:45:20.623Z,7.78
2023-01-11T17:50:31.444Z,16.05
2023-01-11T17:55:37.200Z,32.17
2023-01-11T18:00:43.685Z,36.05
2023-01-11T18:05:51.576Z,14.98
2023-01-11T18:10:58.422Z,14.88
2023-01-11T18:16:03.947Z,29.73
2023-01-11T18:21:42.257Z,18.63
2023-01-11T18:26:50.452Z,21.35
2023-01-11T18:31:57.668Z,25.83
2023-01-11T18:37:03.251Z,22.00
2023-01-11T18:42:09.536Z,18.55
2023-01-11T18:47:19.884Z,19.80
2023-01-11T18:52:28.298Z,31.73
2023-01-11T18:57:37.799Z,28.25
2023-01-11T19:07:48.748Z,20.40
2023-01-11T19:12:55.349Z,21.08
2023-01-11T19:23:10.144Z,36.92
2023-01-11T19:28:15.781Z,19.52
2023-01-11T19:33:20.968Z,20.48
2023-01-11T19:38:25.614Z,19.08
2023-01-11T19:43:32.146Z,16.38
2023-01-11T19:48:36.240Z,16.20
2023-01-11T19:53:41.256Z,23.60
2023-01-11T19:58:47.820Z,22.33
2023-01-11T20:03:54.304Z,11.45
2023-01-11T20:08:58.492Z,20.17
2023-01-11T20:14:06.687Z,25.63
2023-01-11T20:19:12.797Z,26.25
2023-01-11T20:24:18.129Z,38.22
2023-01-11T20:29:24.345Z,49.17
2023-01-11T20:34:29.011Z,46.83
2023-01-11T20:39:33.167Z,25.08
2023-01-11T20:44:42.753Z,24.23
2023-01-11T20:49:47.269Z,27.02
2023-01-11T20:54:51.690Z,24.88
2023-01-11T20:59:57.807Z,29.05
2023-01-11T21:05:05.523Z,25.42
2023-01-11T21:10:11.221Z,20.17
2023-01-11T21:15:18.111Z,11.18
2023-01-11T21:20:22.466Z,8.88
2023-01-11T21:25:26.777Z,9.48
2023-01-11T21:30:33.530Z,12.27
2023-01-11T21:35:37.659Z,14.63
2023-01-11T21:40:41.687Z,13.30
2023-01-11T21:45:55.754Z,14.00
2023-01-11T21:51:00.688Z,8.95
2023-01-11T21:56:08.120Z,8.77
2023-01-11T22:01:15.352Z,6.97
2023-01-11T22:06:19.726Z,7.35
2023-01-11T22:11:23.829Z,16.83
2023-01-11T22:16:30.081Z,40.42
2023-01-11T22:21:35.738Z,11.55
2023-01-11T22:26:39.945Z,9.55
2023-01-11T22:31:49.085Z,9.93
2023-01-11T22:36:54.518Z,11.00
2023-01-11T22:41:59.368Z,18.95
2023-01-11T22:47:05.252Z,25.98
2023-01-11T22:52:10.328Z,12.60
2023-01-11T22:57:14.772Z,8.27
2023-01-11T23:02:20.226Z,10.25
2023-01-11T23:07:24.639Z,10.77
2023-01-11T23:12:46.395Z,14.95
2023-01-11T23:17:51.727Z,12.77
2023-01-11T23:22:55.618Z,12.32
2023-01-11T23:28:00.023Z,13.02
2023-01-11T23:33:05.489Z,11.48
2023-01-11T23:38:09.443Z,10.80
2023-01-11T23:43:13.378Z,11.75
2023-01-11T23:48:19.097Z,11.35
2023-01-11T23:53:23.275Z,10.05
2023-01-11T23:58:27.338Z,9.90
